createdAt,value
2023-02-12T00:01:40.731Z,30.83
2023-02-12T00:04:23.018Z,40.40
2023-02-12T00:07:05.453Z,27.75
2023-02-12T00:09:47.622Z,29.25
2023-02-12T00:12:30.025Z,26.08
2023-02-12T00:15:12.208Z,34.35
2023-02-12T00:17:54.605Z,30.55
2023-02-12T00:20:39.714Z,30.40
2023-02-12T00:23:22.506Z,42.10
2023-02-12T00:26:09.742Z,35.17
2023-02-12T00:28:53.486Z,28.52
2023-02-12T00:31:35.760Z,26.15
2023-02-12T00:34:18.227Z,37.50
2023-02-12T00:37:00.394Z,39.53
2023-02-12T00:39:43.729Z,31.63
2023-02-12T00:42:26.350Z,31.63
2023-02-12T00:45:09.366Z,36.55
2023-02-12T00:47:51.468Z,31.35
2023-02-12T00:50:33.903Z,36.78
2023-02-12T00:53:16.660Z,33.78
2023-02-12T00:55:59.770Z,29.60
2023-02-12T00:58:42.133Z,25.45
2023-02-12T01:01:24.850Z,25.58
2023-02-12T01:04:07.534Z,25.58
2023-02-12T01:06:51.079Z,24.10
2023-02-12T01:09:34.589Z,23.88
2023-02-12T01:12:17.085Z,20.83
2023-02-12T01:14:59.428Z,20.77
2023-02-12T01:17:41.953Z,19.95
2023-02-12T01:20:25.386Z,18.60
2023-02-12T01:23:08.706Z,15.02
2023-02-12T01:25:51.684Z,13.25
2023-02-12T01:28:34.395Z,8.07
2023-02-12T01:31:22.842Z,7.90
2023-02-12T01:34:07.633Z,18.58
2023-02-12T01:36:49.818Z,32.78
2023-02-12T01:39:32.760Z,35.17
2023-02-12T01:42:16.442Z,7.00
2023-02-12T01:45:14.257Z,10.77
2023-02-12T01:47:57.208Z,11.35
2023-02-12T01:50:39.889Z,10.52
2023-02-12T01:53:24.855Z,42.70
2023-02-12T01:56:09.758Z,29.55
2023-02-12T01:58:53.862Z,18.65
2023-02-12T02:01:36.567Z,19.40
2023-02-12T02:04:23.859Z,12.48
2023-02-12T02:07:08.653Z,21.40
2023-02-12T02:09:52.386Z,13.02
2023-02-12T02:12:54.151Z,11.13
2023-02-12T02:15:37.932Z,11.38
2023-02-12T02:18:44.323Z,10.80
2023-02-12T02:24:21.279Z,13.20
2023-02-12T02:27:19.000Z,9.68
2023-02-12T02:30:14.179Z,12.98
2023-02-12T02:33:15.534Z,14.45
2023-02-12T02:36:13.368Z,14.63
2023-02-12T02:38:57.230Z,7.63
2023-02-12T02:41:50.970Z,13.30
2023-02-12T02:44:37.009Z,11.23
2023-02-12T02:47:26.676Z,10.20
2023-02-12T02:50:18.722Z,7.72
2023-02-12T02:53:08.798Z,9.15
2023-02-12T02:55:55.281Z,13.85
2023-02-12T02:58:47.719Z,9.48
2023-02-12T03:01:35.901Z,7.28
2023-02-12T03:04:18.346Z,7.45
2023-02-12T03:07:10.353Z,8.15
2023-02-12T03:10:29.605Z,17.98
2023-02-12T03:13:18.596Z,11.43
2023-02-12T03:16:14.215Z,12.13
2023-02-12T03:19:09.376Z,18.63
2023-02-12T03:22:04.114Z,18.03
2023-02-12T03:24:56.273Z,14.40
2023-02-12T03:27:57.806Z,11.52
2023-02-12T03:31:00.100Z,11.18
2023-02-12T03:34:02.492Z,14.68
2023-02-12T03:36:47.387Z,12.00
2023-02-12T03:39:42.236Z,10.23
2023-02-12T03:42:30.466Z,7.95
2023-02-12T03:45:42.020Z,9.23
2023-02-12T03:48:29.182Z,9.27
2023-02-12T03:51:38.113Z,7.80
2023-02-12T03:54:22.061Z,9.40
2023-02-12T03:57:10.435Z,7.78
2023-02-12T03:59:52.812Z,9.07
2023-02-12T04:02:35.370Z,6.90
2023-02-12T04:05:28.117Z,8.52
2023-02-12T04:08:12.861Z,7.50
2023-02-12T04:11:13.591Z,9.65
2023-02-12T04:14:24.776Z,10.15
2023-02-12T04:17:33.528Z,13.20
2023-02-12T04:20:37.845Z,10.57
2023-02-12T04:23:42.581Z,9.88
2023-02-12T04:26:41.753Z,13.35
2023-02-12T04:29:38.333Z,11.70
2023-02-12T04:32:45.160Z,12.80
2023-02-12T04:35:33.292Z,10.52
2023-02-12T04:38:19.670Z,10.65
2023-02-12T04:41:04.613Z,10.15
2023-02-12T04:43:47.147Z,7.88
2023-02-12T04:46:29.470Z,10.43
2023-02-12T04:49:16.412Z,9.43
2023-02-12T04:54:41.140Z,12.93
2023-02-12T04:57:23.355Z,10.77
2023-02-12T05:00:08.902Z,13.95
2023-02-12T05:02:51.224Z,12.82
2023-02-12T05:05:34.007Z,11.20
2023-02-12T05:08:16.194Z,12.90
2023-02-12T05:11:03.355Z,15.00
2023-02-12T05:13:50.570Z,9.93
2023-02-12T05:16:32.972Z,8.25
2023-02-12T05:19:15.172Z,12.13
2023-02-12T05:21:57.582Z,15.95
2023-02-12T05:24:40.582Z,17.38
2023-02-12T05:27:23.032Z,16.88
2023-02-12T05:30:06.409Z,13.52
2023-02-12T05:32:48.953Z,22.65
2023-02-12T05:35:31.120Z,15.25
2023-02-12T05:38:13.554Z,15.40
2023-02-12T05:41:05.389Z,16.35
2023-02-12T05:43:49.730Z,10.88
2023-02-12T05:46:32.784Z,22.08
2023-02-12T05:49:15.908Z,21.08
2023-02-12T05:51:58.234Z,26.80
2023-02-12T05:54:40.669Z,20.92
2023-02-12T05:57:22.833Z,24.95
2023-02-12T06:00:07.044Z,76.05
2023-02-12T06:02:54.387Z,68.00
2023-02-12T06:05:36.820Z,73.60
2023-02-12T06:08:19.023Z,66.32
2023-02-12T06:11:06.708Z,59.25
2023-02-12T06:13:49.389Z,13.68
2023-02-12T06:16:32.510Z,13.57
2023-02-12T06:19:15.480Z,13.93
2023-02-12T06:21:58.102Z,14.85
2023-02-12T06:24:40.401Z,19.17
2023-02-12T06:27:22.839Z,13.18
2023-02-12T06:30:05.572Z,9.48
2023-02-12T06:32:50.285Z,12.48
2023-02-12T06:35:35.814Z,10.60
2023-02-12T06:38:18.409Z,11.95
2023-02-12T06:41:02.700Z,5.30
2023-02-12T06:43:45.501Z,5.15
2023-02-12T06:46:28.035Z,10.60
2023-02-12T06:49:12.757Z,9.90
2023-02-12T06:51:55.495Z,8.35
2023-02-12T06:54:39.417Z,5.70
2023-02-12T06:57:21.965Z,10.48
2023-02-12T07:00:05.511Z,7.20
2023-02-12T07:02:53.905Z,4.35
2023-02-12T07:05:40.058Z,7.93
2023-02-12T07:08:22.936Z,9.20
2023-02-12T07:11:06.576Z,7.63
2023-02-12T07:13:49.190Z,10.52
2023-02-12T07:16:32.154Z,12.02
2023-02-12T07:19:14.844Z,12.77
2023-02-12T07:21:57.696Z,13.73
2023-02-12T07:24:40.148Z,31.73
2023-02-12T07:27:22.824Z,7.65
2023-02-12T07:30:06.898Z,7.75
2023-02-12T07:32:49.589Z,7.32
2023-02-12T07:35:32.375Z,20.88
2023-02-12T07:38:15.178Z,19.20
2023-02-12T07:41:10.877Z,11.18
2023-02-12T07:43:56.533Z,14.73
2023-02-12T07:46:42.496Z,7.45
2023-02-12T07:49:25.469Z,7.97
2023-02-12T07:52:07.909Z,12.75
2023-02-12T07:54:50.292Z,8.05
2023-02-12T07:57:32.511Z,6.45
2023-02-12T08:00:15.866Z,6.43
2023-02-12T08:02:58.082Z,6.30
2023-02-12T08:05:41.491Z,7.90
2023-02-12T08:08:23.677Z,12.68
2023-02-12T08:11:11.148Z,13.25
2023-02-12T08:13:53.605Z,16.70
2023-02-12T08:16:38.790Z,17.50
2023-02-12T08:19:24.954Z,6.10
2023-02-12T08:22:08.835Z,7.38
2023-02-12T08:24:51.008Z,6.57
2023-02-12T08:27:33.566Z,5.85
2023-02-12T08:30:15.928Z,6.55
2023-02-12T08:32:58.466Z,7.05
2023-02-12T08:35:40.651Z,6.32
2023-02-12T08:38:23.148Z,7.47
2023-02-12T08:41:08.755Z,6.40
2023-02-12T08:43:54.170Z,16.98
2023-02-12T08:46:39.603Z,17.02
2023-02-12T08:49:24.944Z,13.07
2023-02-12T08:52:07.192Z,14.30
2023-02-12T08:54:49.817Z,17.30
2023-02-12T08:57:32.819Z,28.55
2023-02-12T09:00:15.770Z,11.52
2023-02-12T09:02:57.987Z,33.42
2023-02-12T09:05:41.761Z,26.33
2023-02-12T09:08:24.214Z,38.05
2023-02-12T09:11:08.499Z,22.42
2023-02-12T09:13:51.182Z,21.83
2023-02-12T09:16:36.084Z,14.73
2023-02-12T09:19:18.899Z,19.45
2023-02-12T09:22:01.384Z,17.55
2023-02-12T09:24:43.810Z,39.03
2023-02-12T09:27:28.652Z,19.50
2023-02-12T09:30:13.047Z,28.52
2023-02-12T09:32:56.638Z,26.38
2023-02-12T09:35:39.836Z,22.17
2023-02-12T09:38:22.564Z,33.30
2023-02-12T09:41:25.921Z,22.25
2023-02-12T09:44:39.813Z,16.13
2023-02-12T09:47:31.025Z,12.73
2023-02-12T09:50:39.016Z,14.73
2023-02-12T09:53:29.178Z,16.75
2023-02-12T09:56:20.869Z,13.45
2023-02-12T09:59:06.447Z,15.02
2023-02-12T10:01:48.961Z,14.20
2023-02-12T10:04:31.330Z,10.30
2023-02-12T10:07:35.860Z,13.85
2023-02-12T10:10:33.463Z,15.43
2023-02-12T10:13:18.709Z,15.70
2023-02-12T10:16:38.432Z,14.75
2023-02-12T10:20:01.318Z,17.77
2023-02-12T10:23:13.745Z,64.13
2023-02-12T10:26:26.043Z,56.17
2023-02-12T10:29:27.314Z,23.27
2023-02-12T10:32:30.645Z,17.20
2023-02-12T10:35:15.803Z,58.25
2023-02-12T10:38:05.197Z,15.82
2023-02-12T10:40:50.372Z,127.63
2023-02-12T10:43:32.925Z,85.60
2023-02-12T10:46:16.524Z,14.27
2023-02-12T10:49:00.800Z,13.85
2023-02-12T10:51:57.754Z,17.67
2023-02-12T10:54:45.992Z,17.23
2023-02-12T10:57:31.059Z,22.58
2023-02-12T11:00:35.101Z,48.55
2023-02-12T11:03:21.250Z,24.38
2023-02-12T11:06:13.669Z,26.65
2023-02-12T11:08:57.956Z,19.92
2023-02-12T11:11:40.592Z,30.45
2023-02-12T11:14:24.128Z,35.15
2023-02-12T11:17:06.997Z,16.73
2023-02-12T11:20:21.559Z,23.33
2023-02-12T11:23:07.394Z,15.68
2023-02-12T11:26:07.775Z,15.68
2023-02-12T11:29:21.100Z,13.52
2023-02-12T11:32:08.722Z,16.30
2023-02-12T11:35:18.833Z,13.38
2023-02-12T11:38:02.707Z,13.13
2023-02-12T11:40:48.019Z,10.38
2023-02-12T11:43:34.467Z,12.60
2023-02-12T11:46:23.813Z,13.05
2023-02-12T11:49:09.597Z,12.40
2023-02-12T11:51:53.158Z,8.48
2023-02-12T11:54:42.935Z,12.95
2023-02-12T11:57:47.990Z,12.73
2023-02-12T12:00:41.633Z,23.17
2023-02-12T12:03:49.541Z,22.27
2023-02-12T12:06:36.994Z,20.40
2023-02-12T12:09:26.934Z,15.20
2023-02-12T12:12:44.695Z,27.42
2023-02-12T12:15:57.499Z,11.07
2023-02-12T12:19:15.768Z,11.90
2023-02-12T12:22:16.758Z,26.70
2023-02-12T12:25:06.404Z,34.22
2023-02-12T12:28:08.406Z,28.40
2023-02-12T12:30:58.311Z,24.20
2023-02-12T12:33:46.504Z,10.98
2023-02-12T12:36:39.360Z,11.32
2023-02-12T12:39:36.084Z,9.43
2023-02-12T12:42:33.269Z,15.25
2023-02-12T12:45:43.921Z,12.48
2023-02-12T12:48:52.939Z,15.80
2023-02-12T12:51:53.940Z,30.58
2023-02-12T12:54:45.718Z,15.93
2023-02-12T12:57:34.199Z,12.35
2023-02-12T13:00:45.564Z,47.55
2023-02-12T13:03:46.106Z,19.23
2023-02-12T13:06:31.240Z,14.40
2023-02-12T13:09:23.937Z,31.23
2023-02-12T13:12:37.055Z,34.60
2023-02-12T13:15:42.114Z,24.60
2023-02-12T13:18:28.323Z,21.67
2023-02-12T13:21:26.299Z,25.20
2023-02-12T13:24:29.820Z,18.42
2023-02-12T13:27:20.262Z,28.33
2023-02-12T13:30:15.844Z,30.17
2023-02-12T13:33:07.415Z,12.57
2023-02-12T13:35:54.131Z,27.13
2023-02-12T13:38:46.058Z,16.40
2023-02-12T13:41:29.169Z,15.40
2023-02-12T13:44:28.956Z,20.40
2023-02-12T13:47:14.012Z,21.45
2023-02-12T13:50:05.620Z,23.30
2023-02-12T13:53:12.843Z,13.70
2023-02-12T13:56:15.260Z,18.58
2023-02-12T13:59:00.475Z,33.95
2023-02-12T14:01:47.548Z,20.00
2023-02-12T14:04:34.282Z,24.73
2023-02-12T14:07:17.277Z,28.88
2023-02-12T14:09:59.559Z,36.35
2023-02-12T14:12:46.975Z,19.85
2023-02-12T14:15:51.239Z,37.72
2023-02-12T14:18:37.703Z,27.25
2023-02-12T14:21:34.302Z,29.55
2023-02-12T14:24:38.550Z,24.15
2023-02-12T14:27:34.579Z,25.50
2023-02-12T14:33:08.225Z,22.15
2023-02-12T14:36:15.507Z,17.25
2023-02-12T14:39:05.012Z,27.90
2023-02-12T14:42:14.717Z,14.23
2023-02-12T14:44:58.049Z,26.45
2023-02-12T14:47:43.408Z,39.65
2023-02-12T14:50:31.513Z,29.98
2023-02-12T14:53:29.489Z,33.03
2023-02-12T14:56:12.716Z,22.13
2023-02-12T14:59:01.307Z,29.05
2023-02-12T15:01:44.290Z,37.83
2023-02-12T15:04:30.316Z,35.45
2023-02-12T15:07:26.293Z,45.28
2023-02-12T15:13:22.963Z,37.70
2023-02-12T15:16:22.336Z,76.10
2023-02-12T15:19:26.329Z,93.32
2023-02-12T15:22:17.017Z,104.53
2023-02-12T15:25:27.581Z,66.22
2023-02-12T15:28:24.342Z,71.03
2023-02-12T15:31:11.005Z,70.38
2023-02-12T15:33:57.340Z,82.70
2023-02-12T15:36:44.714Z,75.90
2023-02-12T15:39:28.910Z,69.45
2023-02-12T15:42:33.072Z,55.45
2023-02-12T15:45:15.605Z,97.38
2023-02-12T15:48:00.832Z,110.30
2023-02-12T15:50:48.219Z,97.40
2023-02-12T15:53:30.882Z,66.85
2023-02-12T15:56:21.155Z,48.70
2023-02-12T15:59:04.408Z,40.17
2023-02-12T16:02:25.684Z,47.75
2023-02-12T16:05:08.251Z,66.28
2023-02-12T16:07:51.537Z,79.00
2023-02-12T16:10:34.528Z,97.63
2023-02-12T16:13:24.768Z,100.53
2023-02-12T16:16:12.213Z,77.63
2023-02-12T16:19:05.678Z,71.05
2023-02-12T16:22:05.017Z,69.38
2023-02-12T16:24:56.762Z,75.68
2023-02-12T16:27:40.493Z,78.57
2023-02-12T16:30:42.828Z,79.53
2023-02-12T16:33:35.911Z,74.85
2023-02-12T16:36:24.924Z,75.00
2023-02-12T16:39:08.586Z,68.55
2023-02-12T16:41:55.914Z,64.85
2023-02-12T16:44:38.488Z,64.45
2023-02-12T16:47:24.460Z,68.00
2023-02-12T16:50:15.074Z,52.00
2023-02-12T16:53:06.962Z,60.72
2023-02-12T16:55:50.141Z,57.22
2023-02-12T16:58:33.054Z,72.82
2023-02-12T17:01:28.151Z,75.70
2023-02-12T17:04:16.517Z,65.28
2023-02-12T17:06:59.166Z,77.22
2023-02-12T17:09:42.106Z,112.63
2023-02-12T17:12:27.900Z,118.13
2023-02-12T17:15:16.327Z,106.28
2023-02-12T17:17:59.425Z,151.45
2023-02-12T17:20:42.697Z,139.43
2023-02-12T17:23:25.825Z,117.32
2023-02-12T17:26:09.814Z,128.68
2023-02-12T17:28:52.501Z,103.07
2023-02-12T17:31:37.699Z,92.28
2023-02-12T17:34:21.304Z,86.45
2023-02-12T17:37:06.643Z,75.03
2023-02-12T17:39:49.146Z,84.78
2023-02-12T17:42:32.776Z,83.72
2023-02-12T17:45:15.406Z,80.18
2023-02-12T17:47:58.754Z,79.65
2023-02-12T17:50:41.788Z,88.15
2023-02-12T17:53:24.832Z,93.55
2023-02-12T17:56:20.356Z,88.95
2023-02-12T17:59:03.717Z,115.85
2023-02-12T18:01:46.951Z,153.85
2023-02-12T18:04:34.004Z,87.05
2023-02-12T18:09:59.548Z,108.28
2023-02-12T18:12:42.443Z,133.23
2023-02-12T18:15:25.326Z,79.88
2023-02-12T18:18:08.401Z,103.57
2023-02-12T18:20:51.241Z,130.55
2023-02-12T18:23:34.177Z,119.40
2023-02-12T18:26:18.966Z,181.65
2023-02-12T18:29:01.637Z,140.65
2023-02-12T18:31:44.785Z,195.85
2023-02-12T18:34:27.494Z,169.98
2023-02-12T18:37:12.860Z,198.68
2023-02-12T18:39:55.356Z,151.43
2023-02-12T18:42:38.214Z,189.30
2023-02-12T18:45:21.853Z,196.88
2023-02-12T18:48:08.543Z,144.20
2023-02-12T18:50:53.283Z,198.13
2023-02-12T18:53:37.515Z,158.32
2023-02-12T18:56:19.957Z,205.77
2023-02-12T18:59:04.914Z,248.80
2023-02-12T19:01:48.331Z,227.20
2023-02-12T19:04:31.258Z,160.90
2023-02-12T19:07:13.711Z,131.50
2023-02-12T19:09:56.500Z,90.18
2023-02-12T19:12:38.980Z,76.25
2023-02-12T19:15:21.635Z,70.35
2023-02-12T19:18:04.199Z,80.32
2023-02-12T19:20:46.804Z,52.88
2023-02-12T19:23:29.866Z,50.00
2023-02-12T19:26:15.217Z,52.53
2023-02-12T19:28:58.775Z,80.25
2023-02-12T19:31:45.554Z,71.78
2023-02-12T19:34:29.264Z,86.78
2023-02-12T19:37:13.859Z,69.57
2023-02-12T19:39:56.273Z,63.28
2023-02-12T19:42:40.237Z,68.00
2023-02-12T19:45:22.786Z,71.88
2023-02-12T19:48:06.419Z,61.88
2023-02-12T19:50:49.769Z,57.22
2023-02-12T19:53:34.296Z,55.30
2023-02-12T19:56:17.841Z,50.60
2023-02-12T19:59:01.620Z,84.30
2023-02-12T20:01:45.433Z,70.72
2023-02-12T20:04:28.302Z,59.30
2023-02-12T20:07:11.003Z,64.88
2023-02-12T20:09:54.191Z,60.45
2023-02-12T20:12:40.380Z,72.78
2023-02-12T20:18:09.239Z,79.53
2023-02-12T20:20:53.427Z,94.20
2023-02-12T20:23:36.681Z,71.32
2023-02-12T20:26:20.647Z,65.05
2023-02-12T20:29:05.332Z,52.75
2023-02-12T20:31:49.905Z,64.03
2023-02-12T20:34:49.974Z,58.50
2023-02-12T20:37:34.188Z,52.70
2023-02-12T20:40:18.264Z,51.97
2023-02-12T20:43:01.900Z,71.47
2023-02-12T20:45:44.872Z,72.05
2023-02-12T20:48:28.718Z,63.03
2023-02-12T20:51:17.619Z,57.60
2023-02-12T20:54:02.163Z,56.05
2023-02-12T20:56:45.857Z,59.05
2023-02-12T20:59:28.517Z,60.78
2023-02-12T21:02:11.877Z,65.60
2023-02-12T21:04:56.166Z,71.05
2023-02-12T21:07:38.474Z,73.85
2023-02-12T21:10:22.150Z,73.97
2023-02-12T21:13:04.444Z,77.85
2023-02-12T21:15:47.015Z,71.88
2023-02-12T21:18:29.932Z,80.82
2023-02-12T21:21:18.134Z,68.93
2023-02-12T21:24:02.278Z,86.47
2023-02-12T21:26:45.002Z,81.35
2023-02-12T21:29:29.285Z,84.20
2023-02-12T21:32:11.900Z,101.05
2023-02-12T21:34:54.872Z,96.10
2023-02-12T21:37:37.493Z,84.40
2023-02-12T21:40:20.014Z,70.90
2023-02-12T21:43:03.291Z,83.28
2023-02-12T21:45:52.210Z,76.38
2023-02-12T21:48:35.871Z,67.82
2023-02-12T21:51:32.933Z,85.47
2023-02-12T21:54:15.918Z,76.40
2023-02-12T21:56:59.584Z,70.97
2023-02-12T21:59:42.135Z,80.22
2023-02-12T22:02:24.521Z,71.75
2023-02-12T22:05:07.491Z,68.72
2023-02-12T22:07:50.320Z,67.15
2023-02-12T22:10:32.820Z,71.18
2023-02-12T22:13:15.007Z,71.82
2023-02-12T22:15:58.168Z,73.80
2023-02-12T22:18:41.651Z,68.65
2023-02-12T22:21:26.464Z,65.80
2023-02-12T22:24:13.559Z,69.40
2023-02-12T22:26:56.117Z,57.03
2023-02-12T22:29:38.331Z,64.78
2023-02-12T22:32:21.250Z,53.28
2023-02-12T22:35:03.816Z,54.83
2023-02-12T22:37:46.333Z,51.13
2023-02-12T22:40:29.084Z,58.00
2023-02-12T22:43:11.810Z,50.60
2023-02-12T22:45:54.062Z,45.47
2023-02-12T22:48:37.043Z,54.20
2023-02-12T22:51:25.059Z,55.60
2023-02-12T22:54:11.470Z,49.60
2023-02-12T22:56:53.644Z,50.75
2023-02-12T22:59:39.679Z,52.95
2023-02-12T23:02:24.216Z,54.80
2023-02-12T23:05:06.793Z,44.83
2023-02-12T23:07:49.011Z,54.05
2023-02-12T23:10:32.359Z,48.08
2023-02-12T23:13:27.851Z,53.22
2023-02-12T23:16:11.643Z,49.78
2023-02-12T23:18:55.894Z,49.90
2023-02-12T23:21:38.514Z,55.13
2023-02-12T23:24:20.840Z,52.83
2023-02-12T23:27:03.419Z,54.72
2023-02-12T23:29:45.682Z,49.25
2023-02-12T23:32:28.039Z,46.75
2023-02-12T23:35:10.421Z,48.50
2023-02-12T23:37:53.044Z,46.20
2023-02-12T23:40:35.267Z,42.95
2023-02-12T23:43:17.656Z,51.03
2023-02-12T23:46:00.450Z,52.22
2023-02-12T23:48:44.521Z,51.28
2023-02-12T23:51:26.774Z,53.30
2023-02-12T23:54:09.160Z,54.65
2023-02-12T23:56:51.274Z,51.33
2023-02-12T23:59:33.750Z,47.17
